createdAt,value
2018-05-14T00:00:27.325Z,154.70
2018-05-14T00:01:27.347Z,157.70
2018-05-14T00:02:27.370Z,158.20
2018-05-14T00:03:27.390Z,154.20
2018-05-14T00:04:27.412Z,155.60
2018-05-14T00:05:27.434Z,158.60
2018-05-14T00:06:27.455Z,169.60
2018-05-14T00:07:27.478Z,166.70
2018-05-14T00:08:27.500Z,165.70
2018-05-14T00:09:27.520Z,157.40
2018-05-14T00:10:27.543Z,161.90
2018-05-14T00:11:27.563Z,157.40
2018-05-14T00:12:27.585Z,148.60
2018-05-14T00:13:27.611Z,155.80
2018-05-14T00:14:27.628Z,149.70
2018-05-14T00:15:27.651Z,147.80
2018-05-14T00:16:27.672Z,142.20
2018-05-14T00:17:27.694Z,140.50
2018-05-14T00:18:27.716Z,128.10
2018-05-14T00:19:27.737Z,132.30
2018-05-14T00:20:27.759Z,143.90
2018-05-14T00:21:27.781Z,144.00
2018-05-14T00:22:27.801Z,136.40
2018-05-14T00:23:27.824Z,132.90
2018-05-14T00:24:27.846Z,138.90
2018-05-14T00:25:27.867Z,147.20
2018-05-14T00:26:27.893Z,136.70
2018-05-14T00:27:27.918Z,147.00
2018-05-14T00:28:27.933Z,133.80
2018-05-14T00:29:27.954Z,132.20
2018-05-14T00:30:27.976Z,144.70
2018-05-14T00:31:27.998Z,145.60
2018-05-14T00:32:28.020Z,147.90
2018-05-14T00:33:28.041Z,139.10
2018-05-14T00:34:28.063Z,140.20
2018-05-14T00:35:28.083Z,137.80
2018-05-14T00:36:28.106Z,134.50
2018-05-14T00:37:28.129Z,135.00
2018-05-14T00:38:28.150Z,138.00
2018-05-14T00:39:28.171Z,132.80
2018-05-14T00:40:28.193Z,138.70
2018-05-14T00:41:28.214Z,146.70
2018-05-14T00:42:28.235Z,157.10
2018-05-14T00:43:28.257Z,142.60
2018-05-14T00:44:28.279Z,146.50
2018-05-14T00:45:28.301Z,152.10
2018-05-14T00:46:28.322Z,152.40
2018-05-14T00:47:28.344Z,149.90
2018-05-14T00:48:28.370Z,139.40
2018-05-14T00:49:28.441Z,132.60
2018-05-14T00:50:28.409Z,130.70
2018-05-14T00:51:28.433Z,132.30
2018-05-14T00:52:28.453Z,141.00
2018-05-14T00:53:28.474Z,141.90
2018-05-14T00:54:28.496Z,152.80
2018-05-14T00:55:28.517Z,148.60
2018-05-14T00:56:28.540Z,132.80
2018-05-14T00:57:28.562Z,130.40
2018-05-14T00:58:28.582Z,130.00
2018-05-14T00:59:28.604Z,139.40
2018-05-14T01:00:28.626Z,144.10
2018-05-14T01:01:28.648Z,142.90
2018-05-14T01:02:28.668Z,152.10
2018-05-14T01:03:28.689Z,153.90
2018-05-14T01:04:28.711Z,147.00
2018-05-14T01:05:28.734Z,146.80
2018-05-14T01:06:28.812Z,146.40
2018-05-14T01:07:28.776Z,158.00
2018-05-14T01:08:28.798Z,149.10
2018-05-14T01:09:28.819Z,151.80
2018-05-14T01:10:28.840Z,156.10
2018-05-14T01:11:28.864Z,151.50
2018-05-14T01:12:28.886Z,148.40
2018-05-14T01:13:28.906Z,140.00
2018-05-14T01:14:28.927Z,139.20
2018-05-14T01:15:28.949Z,143.30
2018-05-14T01:16:29.020Z,130.90
2018-05-14T01:17:28.992Z,134.10
2018-05-14T01:18:29.014Z,132.50
2018-05-14T01:19:29.036Z,130.90
2018-05-14T01:20:29.057Z,120.50
2018-05-14T01:21:29.078Z,121.20
2018-05-14T01:22:29.149Z,117.50
2018-05-14T01:23:29.121Z,122.80
2018-05-14T01:24:29.144Z,133.10
2018-05-14T01:25:29.165Z,124.40
2018-05-14T01:26:29.189Z,117.90
2018-05-14T01:27:29.259Z,117.30
2018-05-14T01:28:29.231Z,117.60
2018-05-14T01:29:29.253Z,117.60
2018-05-14T01:30:29.273Z,117.80
2018-05-14T01:31:29.295Z,109.90
2018-05-14T01:32:29.371Z,112.90
2018-05-14T01:33:29.339Z,114.90
2018-05-14T01:34:29.360Z,109.60
2018-05-14T01:35:29.382Z,108.20
2018-05-14T01:36:29.406Z,112.40
2018-05-14T01:37:29.425Z,104.80
2018-05-14T01:38:29.448Z,107.80
2018-05-14T01:39:29.470Z,103.60
2018-05-14T01:40:29.491Z,103.40
2018-05-14T01:41:29.514Z,110.60
2018-05-14T01:42:29.535Z,102.70
2018-05-14T01:43:29.559Z,99.80
2018-05-14T01:44:29.577Z,103.10
2018-05-14T01:45:29.642Z,105.80
2018-05-14T01:46:29.620Z,99.60
2018-05-14T01:47:29.642Z,101.00
2018-05-14T01:48:29.715Z,98.30
2018-05-14T01:49:29.687Z,109.00
2018-05-14T01:50:29.809Z,107.10
2018-05-14T01:51:29.729Z,98.80
2018-05-14T01:52:29.752Z,102.80
2018-05-14T01:53:29.823Z,98.20
2018-05-14T01:54:29.795Z,95.30
2018-05-14T01:55:29.816Z,101.50
2018-05-14T01:56:29.839Z,94.20
2018-05-14T01:57:29.863Z,104.70
2018-05-14T01:58:29.881Z,98.70
2018-05-14T01:59:29.905Z,100.40
2018-05-14T02:00:29.926Z,96.00
2018-05-14T02:01:29.949Z,103.00
2018-05-14T02:02:29.969Z,101.10
2018-05-14T02:03:29.990Z,96.10
2018-05-14T02:04:30.012Z,98.40
2018-05-14T02:05:30.036Z,100.20
2018-05-14T02:06:30.057Z,100.20
2018-05-14T02:07:30.079Z,99.20
2018-05-14T02:08:30.099Z,100.10
2018-05-14T02:09:30.122Z,101.20
2018-05-14T02:10:30.143Z,94.00
2018-05-14T02:11:30.165Z,99.70
2018-05-14T02:12:30.187Z,100.60
2018-05-14T02:13:30.211Z,102.90
2018-05-14T02:14:30.235Z,95.20
2018-05-14T02:15:30.258Z,94.80
2018-05-14T02:16:30.276Z,100.10
2018-05-14T02:17:30.296Z,98.20
2018-05-14T02:18:30.326Z,102.20
2018-05-14T02:19:30.340Z,90.10
2018-05-14T02:20:30.361Z,90.90
2018-05-14T02:21:30.383Z,91.90
2018-05-14T02:22:30.404Z,94.60
2018-05-14T02:23:30.427Z,95.80
2018-05-14T02:24:30.454Z,87.40
2018-05-14T02:25:30.473Z,87.50
2018-05-14T02:26:30.496Z,87.60
2018-05-14T02:27:30.514Z,81.80
2018-05-14T02:28:30.537Z,88.40
2018-05-14T02:29:30.560Z,90.00
2018-05-14T02:30:30.579Z,84.50
2018-05-14T02:31:30.602Z,87.10
2018-05-14T02:32:30.625Z,87.30
2018-05-14T02:33:30.645Z,95.30
2018-05-14T02:34:30.667Z,89.50
2018-05-14T02:35:30.688Z,86.00
2018-05-14T02:36:30.710Z,84.60
2018-05-14T02:37:30.737Z,82.00
2018-05-14T02:38:30.754Z,88.30
2018-05-14T02:39:30.774Z,81.90
2018-05-14T02:40:30.797Z,82.90
2018-05-14T02:41:30.819Z,85.00
2018-05-14T02:42:30.845Z,85.00
2018-05-14T02:43:30.863Z,82.80
2018-05-14T02:44:30.895Z,83.80
2018-05-14T02:45:30.907Z,81.90
2018-05-14T02:46:30.927Z,79.30
2018-05-14T02:47:30.950Z,83.20
2018-05-14T02:48:30.971Z,79.50
2018-05-14T02:49:30.993Z,77.00
2018-05-14T02:50:31.024Z,75.60
2018-05-14T02:51:31.043Z,80.80
2018-05-14T02:52:31.058Z,82.60
2018-05-14T02:53:31.081Z,77.70
2018-05-14T02:54:31.106Z,69.30
2018-05-14T02:55:31.123Z,74.90
2018-05-14T02:56:31.157Z,75.00
2018-05-14T02:57:31.166Z,73.90
2018-05-14T02:58:31.192Z,79.70
2018-05-14T02:59:31.211Z,74.90
2018-05-14T03:00:31.233Z,75.70
2018-05-14T03:01:31.254Z,73.90
2018-05-14T03:02:31.276Z,72.40
2018-05-14T03:03:31.297Z,75.60
2018-05-14T03:04:31.318Z,75.10
2018-05-14T03:05:31.341Z,77.30
2018-05-14T03:06:31.362Z,78.10
2018-05-14T03:07:31.385Z,73.50
2018-05-14T03:08:31.405Z,76.10
2018-05-14T03:09:31.429Z,76.30
2018-05-14T03:10:31.557Z,78.10
2018-05-14T03:11:31.471Z,76.10
2018-05-14T03:12:31.492Z,82.90
2018-05-14T03:13:31.515Z,82.60
2018-05-14T03:14:31.535Z,79.50
2018-05-14T03:15:31.560Z,72.70
2018-05-14T03:16:31.579Z,81.10
2018-05-14T03:17:31.601Z,79.90
2018-05-14T03:18:31.621Z,72.40
2018-05-14T03:19:31.644Z,77.80
2018-05-14T03:20:31.665Z,70.50
2018-05-14T03:21:31.687Z,67.80
2018-05-14T03:22:31.709Z,75.80
2018-05-14T03:23:31.730Z,70.80
2018-05-14T03:24:31.752Z,70.00
2018-05-14T03:25:31.775Z,72.50
2018-05-14T03:26:31.795Z,72.30
2018-05-14T03:27:31.817Z,70.50
2018-05-14T03:28:31.839Z,72.20
2018-05-14T03:29:31.860Z,74.00
2018-05-14T03:30:31.888Z,72.30
2018-05-14T03:31:31.906Z,73.60
2018-05-14T03:32:31.925Z,68.70
2018-05-14T03:33:31.948Z,71.70
2018-05-14T03:34:31.969Z,74.90
2018-05-14T03:35:31.994Z,68.10
2018-05-14T03:36:32.012Z,69.60
2018-05-14T03:37:32.036Z,71.10
2018-05-14T03:38:32.056Z,70.50
2018-05-14T03:39:32.079Z,71.90
2018-05-14T03:40:32.101Z,69.00
2018-05-14T03:41:32.121Z,74.60
2018-05-14T03:42:32.143Z,70.80
2018-05-14T03:43:32.164Z,73.90
2018-05-14T03:44:32.187Z,66.10
2018-05-14T03:45:32.208Z,72.20
2018-05-14T03:46:32.229Z,73.60
2018-05-14T03:47:32.251Z,73.40
2018-05-14T03:48:32.273Z,73.80
2018-05-14T03:49:32.295Z,69.80
2018-05-14T03:50:32.316Z,71.90
2018-05-14T03:51:32.338Z,72.50
2018-05-14T03:52:32.364Z,79.20
2018-05-14T03:53:32.383Z,70.10
2018-05-14T03:54:32.402Z,74.70
2018-05-14T03:55:32.424Z,75.30
2018-05-14T03:56:32.448Z,70.80
2018-05-14T03:57:32.470Z,72.40
2018-05-14T03:58:32.490Z,72.40
2018-05-14T03:59:32.511Z,69.40
2018-05-14T04:00:32.534Z,82.40
2018-05-14T04:01:32.557Z,71.40
2018-05-14T04:02:32.576Z,68.60
2018-05-14T04:03:32.600Z,65.90
2018-05-14T04:04:32.621Z,66.90
2018-05-14T04:05:32.642Z,67.80
2018-05-14T04:06:32.663Z,65.50
2018-05-14T04:07:32.686Z,69.30
2018-05-14T04:08:32.708Z,69.70
2018-05-14T04:09:32.731Z,62.80
2018-05-14T04:10:32.751Z,71.80
2018-05-14T04:11:32.775Z,67.80
2018-05-14T04:12:32.798Z,68.60
2018-05-14T04:13:32.819Z,68.30
2018-05-14T04:14:32.839Z,68.60
2018-05-14T04:15:32.861Z,67.70
2018-05-14T04:16:32.910Z,65.90
2018-05-14T04:17:32.904Z,68.30
2018-05-14T04:18:32.925Z,71.60
2018-05-14T04:19:32.947Z,68.60
2018-05-14T04:20:32.969Z,69.00
2018-05-14T04:21:32.991Z,70.70
2018-05-14T04:22:33.012Z,70.70
2018-05-14T04:23:33.034Z,70.60
2018-05-14T04:24:33.157Z,74.50
2018-05-14T04:25:33.079Z,74.20
2018-05-14T04:26:33.106Z,72.10
2018-05-14T04:27:33.123Z,70.90
2018-05-14T04:28:33.143Z,70.40
2018-05-14T04:29:33.166Z,71.30
2018-05-14T04:30:33.188Z,69.20
2018-05-14T04:31:33.209Z,74.40
2018-05-14T04:32:33.231Z,69.00
2018-05-14T04:33:33.253Z,69.80
2018-05-14T04:34:33.273Z,74.30
2018-05-14T04:35:33.296Z,69.80
2018-05-14T04:36:33.318Z,72.90
2018-05-14T04:37:33.340Z,69.20
2018-05-14T04:38:33.361Z,66.70
2018-05-14T04:39:33.382Z,70.40
2018-05-14T04:40:33.406Z,74.80
2018-05-14T04:41:33.427Z,68.20
2018-05-14T04:42:33.447Z,74.20
2018-05-14T04:43:33.872Z,69.80
2018-05-14T04:44:33.492Z,67.70
2018-05-14T04:45:33.515Z,66.80
2018-05-14T04:46:33.536Z,69.70
2018-05-14T04:47:33.556Z,73.10
2018-05-14T04:48:33.578Z,65.10
2018-05-14T04:49:33.600Z,67.20
2018-05-14T04:50:33.624Z,63.70
2018-05-14T04:51:33.649Z,71.50
2018-05-14T04:52:33.665Z,69.40
2018-05-14T04:53:33.687Z,71.30
2018-05-14T04:54:33.708Z,65.00
2018-05-14T04:55:33.731Z,69.60
2018-05-14T04:56:33.752Z,67.00
2018-05-14T04:57:33.774Z,69.00
2018-05-14T04:58:33.800Z,72.40
2018-05-14T04:59:33.819Z,66.30
2018-05-14T05:00:33.840Z,62.90
2018-05-14T05:01:33.921Z,67.40
2018-05-14T05:02:33.882Z,68.20
2018-05-14T05:03:33.907Z,63.30
2018-05-14T05:04:33.926Z,67.20
2018-05-14T05:05:33.949Z,62.80
2018-05-14T05:06:33.969Z,63.00
2018-05-14T05:07:33.991Z,62.00
2018-05-14T05:08:34.014Z,61.30
2018-05-14T05:09:34.036Z,62.10
2018-05-14T05:10:34.056Z,64.40
2018-05-14T05:11:34.116Z,62.50
2018-05-14T05:12:34.104Z,59.50
2018-05-14T05:13:34.124Z,61.00
2018-05-14T05:14:34.144Z,61.00
2018-05-14T05:15:34.169Z,59.50
2018-05-14T05:16:34.189Z,60.00
2018-05-14T05:17:34.209Z,62.50
2018-05-14T05:18:34.237Z,60.60
2018-05-14T05:19:34.253Z,61.30
2018-05-14T05:20:34.346Z,59.90
2018-05-14T05:21:34.297Z,63.20
2018-05-14T05:22:34.323Z,59.20
2018-05-14T05:23:34.341Z,66.60
2018-05-14T05:24:34.363Z,58.40
2018-05-14T05:25:34.385Z,58.40
2018-05-14T05:26:34.407Z,56.40
2018-05-14T05:27:34.428Z,54.20
2018-05-14T05:28:34.451Z,53.70
2018-05-14T05:29:34.473Z,54.20
2018-05-14T05:30:34.494Z,55.00
2018-05-14T05:31:34.516Z,54.80
2018-05-14T05:32:34.539Z,53.00
2018-05-14T05:33:34.562Z,55.70
2018-05-14T05:34:34.668Z,59.10
2018-05-14T05:35:34.604Z,55.40
2018-05-14T05:36:34.630Z,52.50
2018-05-14T05:37:34.652Z,56.50
2018-05-14T05:38:34.670Z,53.40
2018-05-14T05:39:34.693Z,54.80
2018-05-14T05:40:34.715Z,56.50
2018-05-14T05:41:34.738Z,53.00
2018-05-14T05:42:34.759Z,55.10
2018-05-14T05:43:34.781Z,52.30
2018-05-14T05:44:34.805Z,51.80
2018-05-14T05:45:34.828Z,56.50
2018-05-14T05:46:34.846Z,54.80
2018-05-14T05:47:34.869Z,50.70
2018-05-14T05:48:34.893Z,52.20
2018-05-14T05:49:34.920Z,51.30
2018-05-14T05:50:34.936Z,49.90
2018-05-14T05:51:34.958Z,53.10
2018-05-14T05:52:34.980Z,52.10
2018-05-14T05:53:35.008Z,53.20
2018-05-14T05:54:35.025Z,49.40
2018-05-14T05:55:35.047Z,50.30
2018-05-14T05:56:35.069Z,51.60
2018-05-14T05:57:35.093Z,52.80
2018-05-14T05:58:35.113Z,52.30
2018-05-14T05:59:35.135Z,50.70
2018-05-14T06:00:35.159Z,54.00
2018-05-14T06:01:35.181Z,53.20
2018-05-14T06:02:35.202Z,53.80
2018-05-14T06:03:35.227Z,51.70
2018-05-14T06:04:35.247Z,53.60
2018-05-14T06:05:35.269Z,49.70
2018-05-14T06:06:35.289Z,52.20
2018-05-14T06:07:35.312Z,52.20
2018-05-14T06:08:35.336Z,53.40
2018-05-14T06:09:35.421Z,50.80
2018-05-14T06:10:35.379Z,51.40
2018-05-14T06:11:35.402Z,49.80
2018-05-14T06:12:35.427Z,52.30
2018-05-14T06:13:35.446Z,51.00
2018-05-14T06:14:35.518Z,52.10
2018-05-14T06:15:35.497Z,49.20
2018-05-14T06:16:35.513Z,50.00
2018-05-14T06:17:35.536Z,48.50
2018-05-14T06:18:35.558Z,49.30
2018-05-14T06:19:35.580Z,48.30
2018-05-14T06:20:35.603Z,53.70
2018-05-14T06:21:35.627Z,51.00
2018-05-14T06:22:35.647Z,49.20
2018-05-14T06:23:35.674Z,47.10
2018-05-14T06:24:35.694Z,50.40
2018-05-14T06:25:35.716Z,50.90
2018-05-14T06:26:35.737Z,48.40
2018-05-14T06:27:35.766Z,49.10
2018-05-14T06:28:35.785Z,48.60
2018-05-14T06:29:35.806Z,51.30
2018-05-14T06:30:35.832Z,49.20
2018-05-14T06:31:35.851Z,49.70
2018-05-14T06:32:35.875Z,47.40
2018-05-14T06:33:35.897Z,47.20
2018-05-14T06:34:35.918Z,48.10
2018-05-14T06:35:36.027Z,48.40
2018-05-14T06:36:35.965Z,48.70
2018-05-14T06:37:35.987Z,48.50
2018-05-14T06:38:36.011Z,48.00
2018-05-14T06:39:36.032Z,48.10
2018-05-14T06:40:36.055Z,46.20
2018-05-14T06:41:36.079Z,47.80
2018-05-14T06:42:36.100Z,47.00
2018-05-14T06:43:36.126Z,45.70
2018-05-14T06:44:36.148Z,47.90
2018-05-14T06:45:36.169Z,45.50
2018-05-14T06:46:36.246Z,48.00
2018-05-14T06:47:36.214Z,46.40
2018-05-14T06:48:36.239Z,47.40
2018-05-14T06:49:36.260Z,46.80
2018-05-14T06:50:36.283Z,44.20
2018-05-14T06:51:36.306Z,44.20
2018-05-14T06:52:36.331Z,45.20
2018-05-14T06:53:36.352Z,45.20
2018-05-14T06:54:36.375Z,44.20
2018-05-14T06:55:36.399Z,43.60
2018-05-14T06:56:36.422Z,44.90
2018-05-14T06:57:36.444Z,45.30
2018-05-14T06:58:36.467Z,43.00
2018-05-14T06:59:36.490Z,43.20
2018-05-14T07:00:36.512Z,43.80
2018-05-14T07:01:36.537Z,44.40
2018-05-14T07:02:36.559Z,42.10
2018-05-14T07:03:36.581Z,42.00
2018-05-14T07:04:36.605Z,42.70
2018-05-14T07:05:36.628Z,43.50
2018-05-14T07:06:36.650Z,43.00
2018-05-14T07:07:36.673Z,43.90
2018-05-14T07:08:36.695Z,46.20
2018-05-14T07:09:36.718Z,47.00
2018-05-14T07:10:36.741Z,43.00
2018-05-14T07:11:36.863Z,43.60
2018-05-14T07:12:36.787Z,42.00
2018-05-14T07:13:36.809Z,44.60
2018-05-14T07:14:36.840Z,44.30
2018-05-14T07:15:36.857Z,42.00
2018-05-14T07:16:36.881Z,42.90
2018-05-14T07:17:36.903Z,43.50
2018-05-14T07:18:36.925Z,40.60
2018-05-14T07:19:36.951Z,42.10
2018-05-14T07:20:36.974Z,40.20
2018-05-14T07:21:36.997Z,39.80
2018-05-14T07:22:37.020Z,40.80
2018-05-14T07:23:37.045Z,39.20
2018-05-14T07:24:37.158Z,37.10
2018-05-14T07:25:37.093Z,37.30
2018-05-14T07:26:37.115Z,36.40
2018-05-14T07:27:37.140Z,37.60
2018-05-14T07:28:37.164Z,36.90
2018-05-14T07:29:37.590Z,37.10
2018-05-14T07:30:37.213Z,37.40
2018-05-14T07:31:37.238Z,35.80
2018-05-14T07:32:37.262Z,37.70
2018-05-14T07:33:37.288Z,34.40
2018-05-14T07:34:37.311Z,33.80
2018-05-14T07:35:37.338Z,31.60
2018-05-14T07:36:37.361Z,32.90
2018-05-14T07:37:37.393Z,32.70
2018-05-14T07:38:37.411Z,30.90
2018-05-14T07:39:37.440Z,31.80
2018-05-14T07:40:37.462Z,31.60
2018-05-14T07:41:37.486Z,33.30
2018-05-14T07:42:37.514Z,33.00
2018-05-14T07:43:37.536Z,32.80
2018-05-14T07:44:37.563Z,32.20
2018-05-14T07:45:37.586Z,32.60
2018-05-14T07:46:37.609Z,31.30
2018-05-14T07:47:37.634Z,31.10
2018-05-14T07:48:37.659Z,30.00
2018-05-14T07:49:37.687Z,29.70
2018-05-14T07:50:37.709Z,29.40
2018-05-14T07:51:37.733Z,28.30
2018-05-14T07:52:37.762Z,29.00
2018-05-14T07:53:37.783Z,29.10
2018-05-14T07:54:37.809Z,28.90
2018-05-14T07:55:37.831Z,29.60
2018-05-14T07:56:37.857Z,30.80
2018-05-14T07:57:37.885Z,30.80
2018-05-14T07:58:37.956Z,35.70
2018-05-14T07:59:37.930Z,32.50
2018-05-14T08:00:37.957Z,30.30
2018-05-14T08:01:37.979Z,29.50
2018-05-14T08:02:38.003Z,29.80
2018-05-14T08:03:38.029Z,42.00
2018-05-14T08:04:38.054Z,60.90
2018-05-14T08:05:38.141Z,38.30
2018-05-14T08:06:38.101Z,39.90
2018-05-14T08:07:38.127Z,32.10
2018-05-14T08:08:38.151Z,29.30
2018-05-14T08:09:38.178Z,27.80
2018-05-14T08:10:38.200Z,30.10
2018-05-14T08:11:38.227Z,29.00
2018-05-14T08:12:38.252Z,27.90
2018-05-14T08:13:38.276Z,26.80
2018-05-14T08:14:38.299Z,27.20
2018-05-14T08:15:38.326Z,27.20
2018-05-14T08:16:38.350Z,26.50
2018-05-14T08:17:38.375Z,28.90
2018-05-14T08:18:38.400Z,30.90
2018-05-14T08:19:38.424Z,27.40
2018-05-14T08:20:38.449Z,28.00
2018-05-14T08:21:38.482Z,26.90
2018-05-14T08:22:38.499Z,28.60
2018-05-14T08:23:38.526Z,26.80
2018-05-14T08:24:38.550Z,27.00
2018-05-14T08:25:38.575Z,26.80
2018-05-14T08:26:38.601Z,26.50
2018-05-14T08:27:38.934Z,26.30
2018-05-14T08:28:38.862Z,27.00
2018-05-14T08:29:38.686Z,25.50
2018-05-14T08:30:38.704Z,26.20
2018-05-14T08:31:38.727Z,26.40
2018-05-14T08:32:38.751Z,24.80
2018-05-14T08:33:38.778Z,26.10
2018-05-14T08:34:38.802Z,25.00
2018-05-14T08:35:38.827Z,25.60
2018-05-14T08:36:38.853Z,24.50
2018-05-14T08:37:38.878Z,25.50
2018-05-14T08:38:38.902Z,24.50
2018-05-14T08:39:38.927Z,24.80
2018-05-14T08:40:38.953Z,23.20
2018-05-14T08:41:38.979Z,22.90
2018-05-14T08:42:39.004Z,23.80
2018-05-14T08:43:39.082Z,23.80
2018-05-14T08:44:39.054Z,24.70
2018-05-14T08:45:39.083Z,24.70
2018-05-14T08:46:39.105Z,24.20
2018-05-14T08:47:39.130Z,23.30
2018-05-14T08:48:39.156Z,24.70
2018-05-14T08:49:39.181Z,23.10
2018-05-14T08:50:39.205Z,24.50
2018-05-14T08:51:39.232Z,22.80
2018-05-14T08:52:39.257Z,23.70
2018-05-14T08:53:39.282Z,23.00
2018-05-14T08:54:39.331Z,28.80
2018-05-14T08:55:39.387Z,22.10
2018-05-14T08:56:39.359Z,21.30
2018-05-14T08:57:39.385Z,25.20
2018-05-14T08:58:39.409Z,29.70
2018-05-14T08:59:39.437Z,28.40
2018-05-14T09:00:39.499Z,22.30
2018-05-14T09:01:39.485Z,32.30
2018-05-14T09:02:39.511Z,23.50
2018-05-14T09:03:39.536Z,31.80
2018-05-14T09:04:39.562Z,23.30
2018-05-14T09:05:39.588Z,35.70
2018-05-14T09:06:39.612Z,27.30
2018-05-14T09:07:39.638Z,28.60
2018-05-14T09:08:39.669Z,28.40
2018-05-14T09:09:39.690Z,22.20
2018-05-14T09:10:39.715Z,20.70
2018-05-14T09:11:39.740Z,20.10
2018-05-14T09:12:39.767Z,22.50
2018-05-14T09:13:39.793Z,18.50
2018-05-14T09:14:39.816Z,23.20
2018-05-14T09:15:39.843Z,25.60
2018-05-14T09:16:39.869Z,17.50
2018-05-14T09:17:39.945Z,17.60
2018-05-14T09:18:39.918Z,19.50
2018-05-14T09:19:39.949Z,17.10
2018-05-14T09:20:39.970Z,16.70
2018-05-14T09:21:39.996Z,18.70
2018-05-14T09:22:40.023Z,18.80
2018-05-14T09:23:40.047Z,20.00
2018-05-14T09:24:40.077Z,16.70
2018-05-14T09:25:40.101Z,17.90
2018-05-14T09:26:40.125Z,16.30
2018-05-14T09:27:40.151Z,15.60
2018-05-14T09:28:40.181Z,15.90
2018-05-14T09:29:40.202Z,17.20
2018-05-14T09:30:40.229Z,18.10
2018-05-14T09:31:40.256Z,17.30
2018-05-14T09:32:40.431Z,18.00
2018-05-14T09:33:40.306Z,21.90
2018-05-14T09:34:40.331Z,22.40
2018-05-14T09:35:40.359Z,22.40
2018-05-14T09:36:40.436Z,18.50
2018-05-14T09:37:40.411Z,20.30
2018-05-14T09:38:40.441Z,19.30
2018-05-14T09:39:40.463Z,17.00
2018-05-14T09:40:40.489Z,16.40
2018-05-14T09:41:40.515Z,16.60
2018-05-14T09:42:40.542Z,19.10
2018-05-14T09:43:40.567Z,17.40
2018-05-14T09:44:40.766Z,17.20
2018-05-14T09:45:40.620Z,16.80
2018-05-14T09:46:40.646Z,16.70
2018-05-14T09:47:40.672Z,16.00
2018-05-14T09:48:40.700Z,15.40
2018-05-14T09:49:40.726Z,16.60
2018-05-14T09:50:40.754Z,16.30
2018-05-14T09:51:40.779Z,17.20
2018-05-14T09:52:40.805Z,16.60
2018-05-14T09:53:41.084Z,14.20
2018-05-14T09:54:40.858Z,14.00
2018-05-14T09:55:40.883Z,15.00
2018-05-14T09:56:40.911Z,15.70
2018-05-14T09:57:40.938Z,15.00
2018-05-14T09:58:40.963Z,14.50
2018-05-14T09:59:40.989Z,14.90
2018-05-14T10:00:41.016Z,14.20
2018-05-14T10:01:41.047Z,17.10
2018-05-14T10:02:41.068Z,13.00
2018-05-14T10:03:41.138Z,13.20
2018-05-14T10:04:41.123Z,13.90
2018-05-14T10:05:41.178Z,15.20
2018-05-14T10:06:41.175Z,14.10
2018-05-14T10:07:41.201Z,14.10
2018-05-14T10:08:41.234Z,13.80
2018-05-14T10:09:41.261Z,15.00
2018-05-14T10:10:41.281Z,16.60
2018-05-14T10:11:41.310Z,17.60
2018-05-14T10:12:41.335Z,13.50
2018-05-14T10:13:41.362Z,16.50
2018-05-14T10:14:41.390Z,18.00
2018-05-14T10:15:41.415Z,13.50
2018-05-14T10:16:41.443Z,14.90
2018-05-14T10:17:41.469Z,13.30
2018-05-14T10:18:41.505Z,12.90
2018-05-14T10:19:41.522Z,13.50
2018-05-14T10:20:41.550Z,14.10
2018-05-14T10:21:41.576Z,13.40
2018-05-14T10:22:41.604Z,14.80
2018-05-14T10:23:41.630Z,16.70
2018-05-14T10:24:41.713Z,14.80
2018-05-14T10:25:41.682Z,12.20
2018-05-14T10:26:41.709Z,14.00
2018-05-14T10:27:41.737Z,12.70
2018-05-14T10:28:41.763Z,21.00
2018-05-14T10:29:41.791Z,14.20
2018-05-14T10:30:41.817Z,15.60
2018-05-14T10:31:41.843Z,15.40
2018-05-14T10:32:41.870Z,13.60
2018-05-14T10:33:41.898Z,13.10
2018-05-14T10:34:41.923Z,12.00
2018-05-14T10:35:41.954Z,12.40
2018-05-14T10:36:41.982Z,12.00
2018-05-14T10:37:42.006Z,17.60
2018-05-14T10:38:42.033Z,11.70
2018-05-14T10:39:42.060Z,13.70
2018-05-14T10:40:42.141Z,15.80
2018-05-14T10:41:42.115Z,11.60
2018-05-14T10:42:42.141Z,11.90
2018-05-14T10:43:42.173Z,15.50
2018-05-14T10:44:42.195Z,15.60
2018-05-14T10:45:42.225Z,13.40
2018-05-14T10:46:42.275Z,11.30
2018-05-14T10:47:42.277Z,14.50
2018-05-14T10:48:42.305Z,17.80
2018-05-14T10:49:42.333Z,11.20
2018-05-14T10:50:42.365Z,14.40
2018-05-14T10:51:42.389Z,13.40
2018-05-14T10:52:42.498Z,10.30
2018-05-14T10:53:42.444Z,10.50
2018-05-14T10:54:42.495Z,11.60
2018-05-14T10:55:42.496Z,11.20
2018-05-14T10:56:42.523Z,11.60
2018-05-14T10:57:42.551Z,10.70
2018-05-14T10:58:42.651Z,10.80
2018-05-14T10:59:42.605Z,13.00
2018-05-14T11:00:42.633Z,20.40
2018-05-14T11:01:42.665Z,11.20
2018-05-14T11:02:42.688Z,12.70
2018-05-14T11:03:42.714Z,15.30
2018-05-14T11:04:42.994Z,11.10
2018-05-14T11:05:42.774Z,13.10
2018-05-14T11:06:42.797Z,10.00
2018-05-14T11:07:42.825Z,12.20
2018-05-14T11:08:42.854Z,10.20
2018-05-14T11:09:42.880Z,11.20
2018-05-14T11:10:42.906Z,13.40
2018-05-14T11:11:42.934Z,14.80
2018-05-14T11:12:42.962Z,18.10
2018-05-14T11:13:42.990Z,12.80
2018-05-14T11:14:43.015Z,16.20
2018-05-14T11:15:43.043Z,11.80
2018-05-14T11:16:43.078Z,12.00
2018-05-14T11:17:43.099Z,16.90
2018-05-14T11:18:43.148Z,14.30
2018-05-14T11:19:43.155Z,14.00
2018-05-14T11:20:43.189Z,13.30
2018-05-14T11:21:43.210Z,13.80
2018-05-14T11:22:43.237Z,14.00
2018-05-14T11:23:43.264Z,15.10
2018-05-14T11:24:43.296Z,11.10
2018-05-14T11:25:43.320Z,12.60
2018-05-14T11:26:43.354Z,10.90
2018-05-14T11:27:43.392Z,12.00
2018-05-14T11:28:43.404Z,10.40
2018-05-14T11:29:43.430Z,10.60
2018-05-14T11:30:43.457Z,14.50
2018-05-14T11:31:43.491Z,14.50
2018-05-14T11:32:43.512Z,12.40
2018-05-14T11:33:43.541Z,10.00
2018-05-14T11:34:43.569Z,14.50
2018-05-14T11:35:43.597Z,11.50
2018-05-14T11:36:43.774Z,15.10
2018-05-14T11:37:43.651Z,19.30
2018-05-14T11:38:43.678Z,16.10
2018-05-14T11:39:43.706Z,19.80
2018-05-14T11:40:43.736Z,19.80
2018-05-14T11:41:43.762Z,15.40
2018-05-14T11:42:43.790Z,14.40
2018-05-14T11:43:43.817Z,10.50
2018-05-14T11:44:43.845Z,11.00
2018-05-14T11:45:43.873Z,10.70
2018-05-14T11:46:43.900Z,8.70
2018-05-14T11:47:43.929Z,10.60
2018-05-14T11:48:43.955Z,13.10
2018-05-14T11:49:43.985Z,7.50
2018-05-14T11:50:44.088Z,8.60
2018-05-14T11:51:44.044Z,6.70
2018-05-14T11:52:44.067Z,9.40
2018-05-14T11:53:44.101Z,7.00
2018-05-14T11:54:44.180Z,10.90
2018-05-14T11:55:44.152Z,10.10
2018-05-14T11:56:44.187Z,9.90
2018-05-14T11:57:44.207Z,11.10
2018-05-14T11:58:44.234Z,8.90
2018-05-14T11:59:44.918Z,11.10
2018-05-14T12:00:44.290Z,9.90
2018-05-14T12:01:44.318Z,9.40
2018-05-14T12:02:44.360Z,11.80
2018-05-14T12:03:44.373Z,7.40
2018-05-14T12:04:44.401Z,10.30
2018-05-14T12:05:44.431Z,8.90
2018-05-14T12:06:44.456Z,10.20
2018-05-14T12:07:44.484Z,9.80
2018-05-14T12:08:44.514Z,11.30
2018-05-14T12:09:44.542Z,12.50
2018-05-14T12:10:44.569Z,10.10
2018-05-14T12:11:44.598Z,8.40
2018-05-14T12:12:44.626Z,9.10
2018-05-14T12:13:44.653Z,10.60
2018-05-14T12:14:44.684Z,10.40
2018-05-14T12:15:44.711Z,10.40
2018-05-14T12:16:44.738Z,8.30
2018-05-14T12:17:44.767Z,9.20
2018-05-14T12:18:44.793Z,8.00
2018-05-14T12:19:44.822Z,10.40
2018-05-14T12:20:44.851Z,16.20
2018-05-14T12:21:44.878Z,11.30
2018-05-14T12:22:44.905Z,14.90
2018-05-14T12:23:44.934Z,17.10
2018-05-14T12:24:44.963Z,11.50
2018-05-14T12:25:45.117Z,11.50
2018-05-14T12:26:45.019Z,8.00
2018-05-14T12:27:45.048Z,8.20
2018-05-14T12:28:45.076Z,7.20
2018-05-14T12:29:45.104Z,10.30
2018-05-14T12:30:45.132Z,9.50
2018-05-14T12:31:45.164Z,12.80
2018-05-14T12:32:45.189Z,13.80
2018-05-14T12:33:45.216Z,12.00
2018-05-14T12:34:45.248Z,10.70
2018-05-14T12:35:45.272Z,9.40
2018-05-14T12:36:45.301Z,9.90
2018-05-14T12:37:45.330Z,19.60
2018-05-14T12:38:45.357Z,14.00
2018-05-14T12:39:45.387Z,12.40
2018-05-14T12:40:45.415Z,9.60
2018-05-14T12:41:45.442Z,13.30
2018-05-14T12:42:45.473Z,14.70
2018-05-14T12:43:45.499Z,13.50
2018-05-14T12:44:45.527Z,10.00
2018-05-14T12:45:45.556Z,13.60
2018-05-14T12:46:45.583Z,12.60
2018-05-14T12:47:45.611Z,10.80
2018-05-14T12:48:45.639Z,9.70
2018-05-14T12:49:45.685Z,10.90